Terminal Aerodrome Forecast
Issued by NWS

Home | Current Version | Previous Version | Graphics & Text | Print | Product List | Glossary On
Versions: 1 2 3 4 5 6 7 8 9 10 11 12 13 14 15 16 17 18 19 20
000
FTUS43 KABR 281400 AAA
TAFATY
TAF AMD
KATY 281413Z 2814/2912 36006KT P6SM BKN100
      TEMPO 2815/2816 BKN010
     FM281600 02010KT P6SM OVC015
     FM282100 03011KT P6SM BKN100=

USA.gov is the U.S. government's official web portal to all federal, state and local government web resources and services.